»·PEaware :: DAL133 KSNA-KSMX

DAL133 :: KSNA-KSMX

FLIGHT INFORMATION

Flight Status: Arrived
Operator:
Delta Air Lines
More flights by this operator :: More flights under this callsign
Pilot: Conor M. (203)
Aircraft: CANADAIR CL-600 CRJ-200
(CRJ2)
More flights by this aircraft type
Origin: KSNA John Wayne-Orange Co
United States
Destination: KSMX Santa Maria Pub/Capt Hancock
United States
More flights between these airports :: More routes between these airports
Route: CHANL3 RZS
File this flight plan on PilotEdge
Remarks:
Altitude:
(Current/Filed)
22,000ft
Speed:
(Current/Filed)
310kts
Departed: 31-May-17 09:38 PM
Arrived: 31-May-17 10:17 PM
Distance/Time
Traveled:
148nm/0:39
Distance/Time
To Go:
Arrived

Flight Plot

Page will automatically refresh every two minutes.

Flight plan parsing failed; only flown route is shown


Map Options




Map Legend


Flown Route
Filed Route
Departure Airport
Arrival Airport
Navaid (VOR, NDB)
Fix

Horizontal Profiles

Position Reports

Time Latitude Longitude Heading Altitude Ground
Speed
31-May-17 21:04 33.679030 -117.862652 117 61ft 0kts
31-May-17 21:05 33.679030 -117.862652 117 61ft 0kts
31-May-17 21:06 33.679030 -117.862652 117 61ft 0kts
31-May-17 21:07 33.679030 -117.862652 117 61ft 0kts
31-May-17 21:08 33.679030 -117.862652 117 61ft 0kts
31-May-17 21:09 33.679030 -117.862652 117 61ft 0kts
31-May-17 21:10 33.679030 -117.862652 117 61ft 0kts
31-May-17 21:11 33.679030 -117.862652 117 61ft 0kts
31-May-17 21:12 33.679030 -117.862652 117 61ft 0kts
31-May-17 21:13 33.679030 -117.862652 117 61ft 0kts
31-May-17 21:14 33.679030 -117.862652 117 61ft 0kts
31-May-17 21:15 33.679030 -117.862652 117 61ft 0kts
31-May-17 21:20 33.679032 -117.862650 117 61ft 0kts
31-May-17 21:21 33.679032 -117.862650 117 61ft 0kts
31-May-17 21:22 33.679032 -117.862650 117 61ft 0kts
31-May-17 21:23 33.679032 -117.862650 117 61ft 0kts
31-May-17 21:24 33.679032 -117.862650 117 61ft 0kts
31-May-17 21:25 33.679032 -117.862650 117 61ft 0kts
31-May-17 21:26 33.679032 -117.862650 117 61ft 0kts
31-May-17 21:27 33.679032 -117.862650 117 61ft 0kts
31-May-17 21:28 33.679032 -117.862650 117 61ft 0kts
31-May-17 21:29 33.679032 -117.862650 117 61ft 0kts
31-May-17 21:30 33.679032 -117.862650 117 61ft 0kts
31-May-17 21:31 33.679032 -117.862650 117 61ft 0kts
31-May-17 21:32 33.679032 -117.862650 117 61ft 0kts
31-May-17 21:33 33.679032 -117.862650 117 61ft 0kts
31-May-17 21:34 33.679032 -117.862651 117 61ft 0kts
31-May-17 21:35 33.678964 -117.863262 10 61ft 0kts
31-May-17 21:36 33.678966 -117.863261 10 61ft 0kts
31-May-17 21:37 33.680550 -117.862887 306 61ft 0kts
31-May-17 21:38 33.680890 -117.863628 297 61ft 9kts
31-May-17 21:39 33.680583 -117.865722 208 61ft 36kts
31-May-17 21:40 33.643072 -117.888571 193 1401ft 209kts
31-May-17 21:41 33.586442 -117.895304 187 4981ft 251kts
31-May-17 21:42 33.522867 -117.929680 213 4968ft 237kts
31-May-17 21:43 33.470303 -117.969453 233 4972ft 217kts
31-May-17 21:44 33.453166 -118.041722 257 9224ft 239kts
31-May-17 21:45 33.422669 -118.126513 247 12886ft 320kts
31-May-17 21:46 33.399367 -118.231857 262 12977ft 342kts
31-May-17 21:47 33.385045 -118.343811 264 13391ft 342kts
31-May-17 21:48 33.411368 -118.442993 313 18885ft 343kts
31-May-17 21:49 33.488824 -118.515421 321 21907ft 374kts
31-May-17 21:50 33.572888 -118.586842 321 21908ft 368kts
31-May-17 21:51 33.652254 -118.654123 321 21910ft 364kts
31-May-17 21:52 33.734646 -118.724111 321 21915ft 363kts
31-May-17 21:53 33.816130 -118.793495 321 21914ft 364kts
31-May-17 21:54 33.898470 -118.863806 321 21913ft 364kts
31-May-17 21:55 33.975014 -118.929287 321 20995ft 324kts
31-May-17 21:56 34.045487 -118.989709 321 19671ft 302kts
31-May-17 21:57 34.111608 -119.047508 312 18370ft 293kts
31-May-17 21:58 34.156719 -119.125330 302 17114ft 289kts
31-May-17 21:59 34.201180 -119.205810 302 15814ft 289kts
31-May-17 22:00 34.246047 -119.287473 302 14516ft 295kts
31-May-17 22:01 34.291155 -119.369787 302 13211ft 292kts
31-May-17 22:02 34.335387 -119.450691 302 11899ft 285kts
31-May-17 22:03 34.378343 -119.529445 302 10587ft 278kts
31-May-17 22:04 34.420339 -119.606602 303 9279ft 273kts
31-May-17 22:05 34.461466 -119.682324 302 7988ft 270kts
31-May-17 22:06 34.501760 -119.756668 303 6702ft 264kts
31-May-17 22:07 34.538575 -119.831353 300 5928ft 249kts
31-May-17 22:08 34.572894 -119.902583 300 5929ft 240kts
31-May-17 22:09 34.603377 -119.966057 300 5931ft 234kts
31-May-17 22:10 34.635767 -120.033623 300 5909ft 237kts
31-May-17 22:11 34.669234 -120.103562 300 5311ft 240kts
31-May-17 22:12 34.700630 -120.169300 300 4749ft 240kts
31-May-17 22:13 34.731896 -120.235086 300 4578ft 209kts
31-May-17 22:14 34.762288 -120.289035 313 4446ft 185kts
31-May-17 22:15 34.799529 -120.334386 314 3622ft 185kts
31-May-17 22:16 34.833867 -120.375448 313 2797ft 163kts
31-May-17 22:17 34.864588 -120.412126 313 1776ft 150kts
31-May-17 22:18 34.894290 -120.447550 313 267ft 134kts
31-May-17 22:19 34.903720 -120.456409 320 266ft 7kts
31-May-17 22:20 34.905021 -120.457957 314 266ft 8kts
31-May-17 22:21 34.906526 -120.457812 46 266ft 0kts
31-May-17 22:22 34.906526 -120.457812 47 266ft 0kts

Navigation Log

Ident Type
Flight plan parsing failed, navigation log unavailable